Hovedside
METAR-TAF:

METAR-TAF

Lufthavner :

Wellington, New Zealand

Wellington internasjonale lufthavn

breddegrad: 41-20S, lengdegrad: 174-48E, høyde over havet: 12 m

Gjeldene værobservasjon

Denne rapporten ble laget for 44 minutter siden, klokken 01:30 UTC
Vind 14 kt fra Nord
Temperatur 24°C
Luftfuktighet 69%
Trykk 1013 hPa
Sikt 10 km eller mer

METAR: NZWN 220130Z AUTO 36014KT 9999 FEW022/// 24/18 Q1013 NOSIG

Tid: 15:14 (02:14 UTC)

Varsel

Denne rapporten ble laget for 3 timer og 10 minutter siden, klokken 23:04 UTC
Varsel gyldig fra 22. klokken 00 UTC til 23. klokken 00 UTC
Vind 15 kt fra Nord med vindkast opp mot 25 kt
Sikt 10 km eller mer
Spredte skyer i en høyde av 2000 ft
Blir
fra 22. klokken 14 UTC til 22. klokken 16 UTC
Vind 12 kt fra Nord

TAF: NZWN 212304Z 2200/2300 36015G25KT 9999 SCT020 BECMG 2214/2216 35012KT

Værobservasjoner og værvarsel for over 4000 flyplasser (METAR- og TAF-rapporter).

Tilgjengelige stasjoner er representert av de røde og gule prikkene på kartet.

Hold musepekeren over prikken for å se navnet på stasjonen.

Klikk så for å se værobservasjoner og -varsler.

For å forandre kartet kan du klikke på den grønne knappen med svart kryss for å zoome inn, på den grønne knappen med strek for å zoome ut, eller på de grønne pilene for å se tilstøtende kart.


METAR-TAF: